createdAt,value
2017-12-10T00:00:12.136Z,14.00
2017-12-10T00:01:12.108Z,13.50
2017-12-10T00:02:12.090Z,16.00
2017-12-10T00:03:12.059Z,15.00
2017-12-10T00:04:12.041Z,17.50
2017-12-10T00:05:12.017Z,17.30
2017-12-10T00:06:11.990Z,14.40
2017-12-10T00:07:11.969Z,15.80
2017-12-10T00:08:11.942Z,14.80
2017-12-10T00:09:11.921Z,16.60
2017-12-10T00:10:11.905Z,14.50
2017-12-10T00:11:11.870Z,14.60
2017-12-10T00:12:11.849Z,14.90
2017-12-10T00:13:11.826Z,13.30
2017-12-10T00:14:11.801Z,14.80
2017-12-10T00:15:11.775Z,12.70
2017-12-10T00:16:11.754Z,17.10
2017-12-10T00:17:11.727Z,14.70
2017-12-10T00:18:11.704Z,14.90
2017-12-10T00:19:11.679Z,13.50
2017-12-10T00:20:11.657Z,15.20
2017-12-10T00:21:11.632Z,13.40
2017-12-10T00:22:11.609Z,13.00
2017-12-10T00:23:11.588Z,15.90
2017-12-10T00:24:11.563Z,13.30
2017-12-10T00:25:11.543Z,14.20
2017-12-10T00:26:11.518Z,15.40
2017-12-10T00:27:11.494Z,16.00
2017-12-10T00:28:11.468Z,14.60
2017-12-10T00:29:11.450Z,12.90
2017-12-10T00:30:11.422Z,13.00
2017-12-10T00:31:11.403Z,16.90
2017-12-10T00:32:11.375Z,13.30
2017-12-10T00:33:11.355Z,17.20
2017-12-10T00:34:11.339Z,13.90
2017-12-10T00:35:11.298Z,18.80
2017-12-10T00:36:11.286Z,13.90
2017-12-10T00:37:11.249Z,12.90
2017-12-10T00:38:11.230Z,14.90
2017-12-10T00:39:11.208Z,15.30
2017-12-10T00:40:11.191Z,20.40
2017-12-10T00:41:11.157Z,15.00
2017-12-10T00:42:11.136Z,17.50
2017-12-10T00:43:11.107Z,14.20
2017-12-10T00:44:11.090Z,13.90
2017-12-10T00:45:11.059Z,15.20
2017-12-10T00:46:11.037Z,15.30
2017-12-10T00:47:11.017Z,13.30
2017-12-10T00:48:10.998Z,14.30
2017-12-10T00:49:10.964Z,14.80
2017-12-10T00:50:10.942Z,15.30
2017-12-10T00:51:10.947Z,13.50
2017-12-10T00:52:10.897Z,14.70
2017-12-10T00:53:10.868Z,17.00
2017-12-10T00:54:10.846Z,16.40
2017-12-10T00:55:10.829Z,15.10
2017-12-10T00:56:10.801Z,14.40
2017-12-10T00:57:10.779Z,14.50
2017-12-10T00:58:10.753Z,16.90
2017-12-10T00:59:10.733Z,17.10
2017-12-10T01:00:10.705Z,14.80
2017-12-10T01:01:10.678Z,13.30
2017-12-10T01:02:10.714Z,17.80
2017-12-10T01:03:10.638Z,15.30
2017-12-10T01:04:10.608Z,12.90
2017-12-10T01:05:10.589Z,17.40
2017-12-10T01:06:10.565Z,12.90
2017-12-10T01:07:10.540Z,16.70
2017-12-10T01:08:10.516Z,17.90
2017-12-10T01:09:10.489Z,16.00
2017-12-10T01:10:10.468Z,13.30
2017-12-10T01:11:10.445Z,14.70
2017-12-10T01:12:10.419Z,14.40
2017-12-10T01:13:10.397Z,13.10
2017-12-10T01:14:10.374Z,13.60
2017-12-10T01:15:10.346Z,13.20
2017-12-10T01:16:10.325Z,17.50
2017-12-10T01:17:10.301Z,16.30
2017-12-10T01:18:10.279Z,13.40
2017-12-10T01:19:10.249Z,15.70
2017-12-10T01:20:10.228Z,14.50
2017-12-10T01:21:10.208Z,13.90
2017-12-10T01:22:10.179Z,15.20
2017-12-10T01:23:10.156Z,13.70
2017-12-10T01:24:10.138Z,14.00
2017-12-10T01:25:10.112Z,14.50
2017-12-10T01:26:10.088Z,13.40
2017-12-10T01:27:10.060Z,12.90
2017-12-10T01:28:10.041Z,13.00
2017-12-10T01:29:10.015Z,13.10
2017-12-10T01:30:09.991Z,13.70
2017-12-10T01:31:09.968Z,13.70
2017-12-10T01:32:09.937Z,13.30
2017-12-10T01:33:09.913Z,14.00
2017-12-10T01:34:09.895Z,18.00
2017-12-10T01:35:09.922Z,13.10
2017-12-10T01:36:09.845Z,14.60
2017-12-10T01:37:09.817Z,13.60
2017-12-10T01:38:09.799Z,14.70
2017-12-10T01:39:09.776Z,15.50
2017-12-10T01:40:09.746Z,14.20
2017-12-10T01:41:09.722Z,12.70
2017-12-10T01:42:09.700Z,13.80
2017-12-10T01:43:09.678Z,13.10
2017-12-10T01:44:09.652Z,13.80
2017-12-10T01:45:09.628Z,15.90
2017-12-10T01:46:09.604Z,14.40
2017-12-10T01:47:09.580Z,14.40
2017-12-10T01:48:09.555Z,14.00
2017-12-10T01:49:09.532Z,14.00
2017-12-10T01:50:09.509Z,13.00
2017-12-10T01:51:09.488Z,14.40
2017-12-10T01:52:09.460Z,15.70
2017-12-10T01:53:09.437Z,14.90
2017-12-10T01:54:09.416Z,15.60
2017-12-10T01:55:09.389Z,14.40
2017-12-10T01:56:09.369Z,15.60
2017-12-10T01:57:09.338Z,15.00
2017-12-10T01:58:09.321Z,13.80
2017-12-10T01:59:09.291Z,17.50
2017-12-10T02:00:09.273Z,14.90
2017-12-10T02:01:09.246Z,14.40
2017-12-10T02:02:09.219Z,15.00
2017-12-10T02:03:09.260Z,15.00
2017-12-10T02:04:09.173Z,13.90
2017-12-10T02:05:09.150Z,17.40
2017-12-10T02:06:09.126Z,14.30
2017-12-10T02:07:09.100Z,17.90
2017-12-10T02:08:09.080Z,14.80
2017-12-10T02:09:09.052Z,16.00
2017-12-10T02:10:09.030Z,15.90
2017-12-10T02:11:09.010Z,15.20
2017-12-10T02:12:08.981Z,15.40
2017-12-10T02:13:08.960Z,14.70
2017-12-10T02:14:08.933Z,13.00
2017-12-10T02:15:08.909Z,14.20
2017-12-10T02:16:08.892Z,15.30
2017-12-10T02:17:08.860Z,15.30
2017-12-10T02:18:08.841Z,15.70
2017-12-10T02:19:08.815Z,15.10
2017-12-10T02:20:08.790Z,15.70
2017-12-10T02:21:08.761Z,17.40
2017-12-10T02:22:08.738Z,15.00
2017-12-10T02:23:08.716Z,15.00
2017-12-10T02:24:08.698Z,14.90
2017-12-10T02:25:08.666Z,14.10
2017-12-10T02:26:08.646Z,15.50
2017-12-10T02:27:08.620Z,14.20
2017-12-10T02:28:08.601Z,15.90
2017-12-10T02:29:08.572Z,13.70
2017-12-10T02:30:08.548Z,14.80
2017-12-10T02:31:08.528Z,14.50
2017-12-10T02:32:08.501Z,14.40
2017-12-10T02:33:08.477Z,14.80
2017-12-10T02:34:08.454Z,14.70
2017-12-10T02:35:08.429Z,16.70
2017-12-10T02:36:08.406Z,14.70
2017-12-10T02:37:08.379Z,15.90
2017-12-10T02:38:08.356Z,15.70
2017-12-10T02:39:08.333Z,15.60
2017-12-10T02:40:08.310Z,15.90
2017-12-10T02:41:08.287Z,15.30
2017-12-10T02:42:08.259Z,14.70
2017-12-10T02:43:08.243Z,15.10
2017-12-10T02:44:08.218Z,15.50
2017-12-10T02:45:08.193Z,16.80
2017-12-10T02:46:08.167Z,15.30
2017-12-10T02:47:08.142Z,16.30
2017-12-10T02:48:08.117Z,16.60
2017-12-10T02:49:08.100Z,14.70
2017-12-10T02:50:08.073Z,17.00
2017-12-10T02:51:08.050Z,16.90
2017-12-10T02:52:08.024Z,16.00
2017-12-10T02:53:08.000Z,17.30
2017-12-10T02:54:07.976Z,16.70
2017-12-10T02:55:07.952Z,17.50
2017-12-10T02:56:07.930Z,16.30
2017-12-10T02:57:07.904Z,15.70
2017-12-10T02:58:07.887Z,17.60
2017-12-10T02:59:07.863Z,17.00
2017-12-10T03:00:07.850Z,18.10
2017-12-10T03:01:07.818Z,16.70
2017-12-10T03:02:07.789Z,17.40
2017-12-10T03:03:07.768Z,17.00
2017-12-10T03:04:07.743Z,15.60
2017-12-10T03:05:07.720Z,16.60
2017-12-10T03:06:07.697Z,16.40
2017-12-10T03:07:07.671Z,16.00
2017-12-10T03:08:07.652Z,15.00
2017-12-10T03:09:07.630Z,17.90
2017-12-10T03:10:07.599Z,15.70
2017-12-10T03:11:07.612Z,16.30
2017-12-10T03:12:07.550Z,16.90
2017-12-10T03:13:07.529Z,15.70
2017-12-10T03:14:07.511Z,15.90
2017-12-10T03:15:07.483Z,15.90
2017-12-10T03:16:07.462Z,14.50
2017-12-10T03:17:07.439Z,16.80
2017-12-10T03:18:07.412Z,15.60
2017-12-10T03:19:07.387Z,16.20
2017-12-10T03:20:07.369Z,16.40
2017-12-10T03:21:07.339Z,16.00
2017-12-10T03:22:07.317Z,16.10
2017-12-10T03:23:07.295Z,15.70
2017-12-10T03:24:07.275Z,14.70
2017-12-10T03:25:07.246Z,14.80
2017-12-10T03:26:07.229Z,14.20
2017-12-10T03:27:07.198Z,14.70
2017-12-10T03:28:07.179Z,15.70
2017-12-10T03:29:07.158Z,16.00
2017-12-10T03:30:07.129Z,13.90
2017-12-10T03:31:07.109Z,14.40
2017-12-10T03:32:07.086Z,15.70
2017-12-10T03:33:07.057Z,13.40
2017-12-10T03:34:07.039Z,14.30
2017-12-10T03:35:07.014Z,14.00
2017-12-10T03:36:06.995Z,12.80
2017-12-10T03:37:06.965Z,13.50
2017-12-10T03:38:06.950Z,13.60
2017-12-10T03:39:06.917Z,13.20
2017-12-10T03:40:06.901Z,15.10
2017-12-10T03:41:06.872Z,17.50
2017-12-10T03:42:06.908Z,13.60
2017-12-10T03:43:06.836Z,14.00
2017-12-10T03:44:06.813Z,14.40
2017-12-10T03:45:06.779Z,13.10
2017-12-10T03:46:06.763Z,13.30
2017-12-10T03:47:06.736Z,13.40
2017-12-10T03:48:06.717Z,14.10
2017-12-10T03:49:06.688Z,13.60
2017-12-10T03:50:06.668Z,13.60
2017-12-10T03:51:06.659Z,14.30
2017-12-10T03:52:06.621Z,14.70
2017-12-10T03:53:06.593Z,13.80
2017-12-10T03:54:06.569Z,13.20
2017-12-10T03:55:06.547Z,13.40
2017-12-10T03:56:06.523Z,13.70
2017-12-10T03:57:06.499Z,14.30
2017-12-10T03:58:06.477Z,13.40
2017-12-10T03:59:06.452Z,13.80
2017-12-10T04:00:06.431Z,15.00
2017-12-10T04:01:06.412Z,14.70
2017-12-10T04:02:06.389Z,13.90
2017-12-10T04:03:06.363Z,14.40
2017-12-10T04:04:06.340Z,16.00
2017-12-10T04:05:06.317Z,14.00
2017-12-10T04:06:06.292Z,14.30
2017-12-10T04:07:06.268Z,15.70
2017-12-10T04:08:06.249Z,16.10
2017-12-10T04:09:06.219Z,14.20
2017-12-10T04:10:06.197Z,14.50
2017-12-10T04:11:06.174Z,15.80
2017-12-10T04:12:06.148Z,15.50
2017-12-10T04:13:06.126Z,14.90
2017-12-10T04:14:06.103Z,15.50
2017-12-10T04:15:06.080Z,14.70
2017-12-10T04:16:06.060Z,15.30
2017-12-10T04:17:06.032Z,15.20
2017-12-10T04:18:06.024Z,16.30
2017-12-10T04:19:05.989Z,15.30
2017-12-10T04:20:05.961Z,14.70
2017-12-10T04:21:05.939Z,15.90
2017-12-10T04:22:05.919Z,15.70
2017-12-10T04:23:05.895Z,16.30
2017-12-10T04:24:05.872Z,17.10
2017-12-10T04:25:05.847Z,16.60
2017-12-10T04:26:05.829Z,17.30
2017-12-10T04:27:05.802Z,16.30
2017-12-10T04:28:05.780Z,17.30
2017-12-10T04:29:05.755Z,16.80
2017-12-10T04:30:05.730Z,19.30
2017-12-10T04:31:05.707Z,19.10
2017-12-10T04:32:05.686Z,18.90
2017-12-10T04:33:05.660Z,19.10
2017-12-10T04:34:05.634Z,21.80
2017-12-10T04:35:05.611Z,20.00
2017-12-10T04:36:05.592Z,20.40
2017-12-10T04:37:05.562Z,19.90
2017-12-10T04:38:05.547Z,21.10
2017-12-10T04:39:05.519Z,21.00
2017-12-10T04:40:05.498Z,21.60
2017-12-10T04:41:05.474Z,20.50
2017-12-10T04:42:05.449Z,22.20
2017-12-10T04:43:05.428Z,21.70
2017-12-10T04:44:05.410Z,21.40
2017-12-10T04:45:05.377Z,22.60
2017-12-10T04:46:05.753Z,21.20
2017-12-10T04:47:05.334Z,21.80
2017-12-10T04:48:05.308Z,21.90
2017-12-10T04:49:05.288Z,22.10
2017-12-10T04:50:05.262Z,22.50
2017-12-10T04:51:05.240Z,23.00
2017-12-10T04:52:05.219Z,21.90
2017-12-10T04:53:05.193Z,23.30
2017-12-10T04:54:05.165Z,21.90
2017-12-10T04:55:05.141Z,23.20
2017-12-10T04:56:05.119Z,21.90
2017-12-10T04:57:05.133Z,22.10
2017-12-10T04:58:05.072Z,21.70
2017-12-10T04:59:05.048Z,22.30
2017-12-10T05:00:05.028Z,22.10
2017-12-10T05:01:05.005Z,21.80
2017-12-10T05:02:04.978Z,22.10
2017-12-10T05:03:04.960Z,21.90
2017-12-10T05:04:04.936Z,22.30
2017-12-10T05:05:04.908Z,22.60
2017-12-10T05:06:04.890Z,21.30
2017-12-10T05:07:04.859Z,22.60
2017-12-10T05:08:04.842Z,22.00
2017-12-10T05:09:04.817Z,21.60
2017-12-10T05:10:04.793Z,22.30
2017-12-10T05:11:04.769Z,21.60
2017-12-10T05:12:04.745Z,23.90
2017-12-10T05:13:04.725Z,24.30
2017-12-10T05:14:04.697Z,21.80
2017-12-10T05:15:04.678Z,23.60
2017-12-10T05:16:04.648Z,24.70
2017-12-10T05:17:04.627Z,26.00
2017-12-10T05:18:04.602Z,25.60
2017-12-10T05:19:04.576Z,24.80
2017-12-10T05:20:04.554Z,25.60
2017-12-10T05:21:04.531Z,25.70
2017-12-10T05:22:04.511Z,26.60
2017-12-10T05:23:04.483Z,25.60
2017-12-10T05:24:04.466Z,26.60
2017-12-10T05:25:04.449Z,26.70
2017-12-10T05:26:04.418Z,24.90
2017-12-10T05:27:04.399Z,26.50
2017-12-10T05:28:04.372Z,24.90
2017-12-10T05:29:04.354Z,25.80
2017-12-10T05:30:04.328Z,26.40
2017-12-10T05:31:04.304Z,26.90
2017-12-10T05:32:04.281Z,25.20
2017-12-10T05:33:04.253Z,25.60
2017-12-10T05:34:04.229Z,25.30
2017-12-10T05:35:04.207Z,23.50
2017-12-10T05:36:04.184Z,23.50
2017-12-10T05:37:04.161Z,24.40
2017-12-10T05:38:04.134Z,24.60
2017-12-10T05:39:04.120Z,23.70
2017-12-10T05:40:04.091Z,24.60
2017-12-10T05:41:04.070Z,24.60
2017-12-10T05:42:04.041Z,24.30
2017-12-10T05:43:04.021Z,24.20
2017-12-10T05:44:04.002Z,24.60
2017-12-10T05:45:03.982Z,24.50
2017-12-10T05:46:03.949Z,24.60
2017-12-10T05:47:03.927Z,25.10
2017-12-10T05:48:03.903Z,24.40
2017-12-10T05:49:03.896Z,23.40
2017-12-10T05:50:03.856Z,23.80
2017-12-10T05:51:03.832Z,23.20
2017-12-10T05:52:03.812Z,23.50
2017-12-10T05:53:03.784Z,22.70
2017-12-10T05:54:03.760Z,24.10
2017-12-10T05:55:03.739Z,23.60
2017-12-10T05:56:03.713Z,23.50
2017-12-10T05:57:03.691Z,22.30
2017-12-10T05:58:03.674Z,22.90
2017-12-10T05:59:03.645Z,22.30
2017-12-10T06:00:03.618Z,23.40
2017-12-10T06:01:03.603Z,23.20
2017-12-10T06:02:03.582Z,22.60
2017-12-10T06:03:03.555Z,22.00
2017-12-10T06:04:03.529Z,22.20
2017-12-10T06:05:03.506Z,20.80
2017-12-10T06:06:03.477Z,20.40
2017-12-10T06:07:03.463Z,21.90
2017-12-10T06:08:03.436Z,21.00
2017-12-10T06:09:03.409Z,20.40
2017-12-10T06:10:03.392Z,20.20
2017-12-10T06:11:03.372Z,19.30
2017-12-10T06:12:03.338Z,19.30
2017-12-10T06:13:03.317Z,18.60
2017-12-10T06:14:03.293Z,18.50
2017-12-10T06:15:03.279Z,18.00
2017-12-10T06:16:03.245Z,17.50
2017-12-10T06:17:03.223Z,18.20
2017-12-10T06:18:03.198Z,18.60
2017-12-10T06:19:03.185Z,18.20
2017-12-10T06:20:03.160Z,18.60
2017-12-10T06:21:03.128Z,17.30
2017-12-10T06:22:03.110Z,17.30
2017-12-10T06:23:03.090Z,18.40
2017-12-10T06:24:03.061Z,18.50
2017-12-10T06:25:03.039Z,16.30
2017-12-10T06:26:03.020Z,18.40
2017-12-10T06:27:02.991Z,17.30
2017-12-10T06:28:02.971Z,16.90
2017-12-10T06:29:02.944Z,17.30
2017-12-10T06:30:02.924Z,16.60
2017-12-10T06:31:02.899Z,15.60
2017-12-10T06:32:02.874Z,16.30
2017-12-10T06:33:02.899Z,16.40
2017-12-10T06:34:02.826Z,16.40
2017-12-10T06:35:02.800Z,16.40
2017-12-10T06:36:02.778Z,15.50
2017-12-10T06:37:02.756Z,15.60
2017-12-10T06:38:02.731Z,17.20
2017-12-10T06:39:02.709Z,16.10
2017-12-10T06:40:02.692Z,16.20
2017-12-10T06:41:02.670Z,15.20
2017-12-10T06:42:02.638Z,14.70
2017-12-10T06:43:02.623Z,14.20
2017-12-10T06:44:02.598Z,15.20
2017-12-10T06:45:02.569Z,17.50
2017-12-10T06:46:02.550Z,15.40
2017-12-10T06:47:02.527Z,15.20
2017-12-10T06:48:02.500Z,15.30
2017-12-10T06:49:02.475Z,15.10
2017-12-10T06:50:02.451Z,16.30
2017-12-10T06:51:02.428Z,16.30
2017-12-10T06:52:02.404Z,15.90
2017-12-10T06:53:02.378Z,17.20
2017-12-10T06:54:02.363Z,19.00
2017-12-10T06:55:02.333Z,18.50
2017-12-10T06:56:02.308Z,18.00
2017-12-10T06:57:02.288Z,20.20
2017-12-10T06:58:02.260Z,19.30
2017-12-10T06:59:02.237Z,20.40
2017-12-10T07:00:02.214Z,20.80
2017-12-10T07:01:02.187Z,21.10
2017-12-10T07:02:02.172Z,20.90
2017-12-10T07:03:02.142Z,22.10
2017-12-10T07:04:02.123Z,24.40
2017-12-10T07:05:02.102Z,23.80
2017-12-10T07:06:02.082Z,23.40
2017-12-10T07:07:02.050Z,24.00
2017-12-10T07:08:02.030Z,23.30
2017-12-10T07:09:02.011Z,21.70
2017-12-10T07:10:01.985Z,24.50
2017-12-10T07:11:01.964Z,23.10
2017-12-10T07:12:01.941Z,23.40
2017-12-10T07:13:01.910Z,21.90
2017-12-10T07:14:01.890Z,21.50
2017-12-10T07:15:01.865Z,19.90
2017-12-10T07:16:01.840Z,19.90
2017-12-10T07:17:01.817Z,20.70
2017-12-10T07:18:01.794Z,19.80
2017-12-10T07:19:01.773Z,19.20
2017-12-10T07:20:01.746Z,18.50
2017-12-10T07:21:01.725Z,19.20
2017-12-10T07:22:01.706Z,17.30
2017-12-10T07:23:01.684Z,17.60
2017-12-10T07:24:01.660Z,17.70
2017-12-10T07:25:01.639Z,17.50
2017-12-10T07:26:01.609Z,17.30
2017-12-10T07:27:01.586Z,17.70
2017-12-10T07:28:01.560Z,17.00
2017-12-10T07:29:01.543Z,15.50
2017-12-10T07:30:01.513Z,15.80
2017-12-10T07:31:01.491Z,16.40
2017-12-10T07:32:01.470Z,16.00
2017-12-10T07:33:01.445Z,16.00
2017-12-10T07:34:01.422Z,15.10
2017-12-10T07:35:01.400Z,15.50
2017-12-10T07:36:01.371Z,16.50
2017-12-10T07:37:01.350Z,14.60
2017-12-10T07:38:01.329Z,14.90
2017-12-10T07:39:01.309Z,14.60
2017-12-10T07:40:01.281Z,14.70
2017-12-10T07:41:01.260Z,15.40
2017-12-10T07:42:01.235Z,14.40
2017-12-10T07:43:01.218Z,14.70
2017-12-10T07:44:01.188Z,15.60
2017-12-10T07:45:01.166Z,14.10
2017-12-10T07:46:01.143Z,14.20
2017-12-10T07:47:01.122Z,13.80
2017-12-10T07:48:01.094Z,13.50
2017-12-10T07:49:01.069Z,14.10
2017-12-10T07:50:01.045Z,14.40
2017-12-10T07:51:01.025Z,13.80
2017-12-10T07:52:01.004Z,15.20
2017-12-10T07:53:00.979Z,13.10
2017-12-10T07:54:00.960Z,13.40
2017-12-10T07:55:00.932Z,12.40
2017-12-10T07:56:00.909Z,12.40
2017-12-10T07:57:00.891Z,11.50
2017-12-10T07:58:00.863Z,11.90
2017-12-10T07:59:00.837Z,13.10
2017-12-10T08:00:00.824Z,11.80
2017-12-10T08:01:00.796Z,11.80
2017-12-10T08:02:00.778Z,10.70
2017-12-10T08:03:00.749Z,12.70
2017-12-10T08:04:00.724Z,11.60
2017-12-10T08:05:00.699Z,11.30
2017-12-10T08:06:00.677Z,10.90
2017-12-10T08:07:00.661Z,10.90
2017-12-10T08:08:00.631Z,11.40
2017-12-10T08:09:00.609Z,11.30
2017-12-10T08:10:00.589Z,10.30
2017-12-10T08:11:00.558Z,11.10
2017-12-10T08:12:00.542Z,10.40
2017-12-10T08:13:00.516Z,10.90
2017-12-10T08:14:00.491Z,9.60
2017-12-10T08:15:00.494Z,10.50
2017-12-10T08:16:00.446Z,12.30
2017-12-10T08:17:00.421Z,11.40
2017-12-10T08:18:00.408Z,12.30
2017-12-10T08:19:00.374Z,10.50
2017-12-10T08:20:00.353Z,12.90
2017-12-10T08:21:00.327Z,9.30
2017-12-10T08:22:00.308Z,9.50
2017-12-10T08:23:00.290Z,10.10
2017-12-10T08:24:00.263Z,11.80
2017-12-10T08:25:00.230Z,10.40
2017-12-10T08:26:00.209Z,11.10
2017-12-10T08:27:00.189Z,11.00
2017-12-10T08:28:00.170Z,11.00
2017-12-10T08:29:00.142Z,9.40
2017-12-10T08:30:00.121Z,8.30
2017-12-10T08:31:00.095Z,9.40
2017-12-10T08:32:00.083Z,9.80
2017-12-10T08:33:00.054Z,8.90
2017-12-10T08:34:00.029Z,8.10
2017-12-10T08:35:00.006Z,9.50
2017-12-10T08:35:59.985Z,10.40
2017-12-10T08:36:59.956Z,7.70
2017-12-10T08:37:59.939Z,8.60
2017-12-10T08:38:59.907Z,8.80
2017-12-10T08:39:59.888Z,8.00
2017-12-10T08:40:59.866Z,9.30
2017-12-10T08:41:59.838Z,9.80
2017-12-10T08:42:59.816Z,10.00
2017-12-10T08:43:59.792Z,9.00
2017-12-10T08:44:59.773Z,9.70
2017-12-10T08:45:59.745Z,8.30
2017-12-10T08:46:59.724Z,9.30
2017-12-10T08:47:59.704Z,9.60
2017-12-10T08:48:59.730Z,8.30
2017-12-10T08:49:59.663Z,8.60
2017-12-10T08:50:59.631Z,10.00
2017-12-10T08:51:59.609Z,10.80
2017-12-10T08:52:59.587Z,7.20
2017-12-10T08:53:59.570Z,8.00
2017-12-10T08:54:59.541Z,9.00
2017-12-10T08:55:59.515Z,8.40
2017-12-10T08:56:59.492Z,7.70
2017-12-10T08:57:59.474Z,10.10
2017-12-10T08:58:59.439Z,9.30
2017-12-10T08:59:59.429Z,9.70
2017-12-10T09:00:59.405Z,10.10
2017-12-10T09:01:59.380Z,11.00
2017-12-10T09:02:59.359Z,7.80
2017-12-10T09:03:59.333Z,9.70
2017-12-10T09:04:59.309Z,8.20
2017-12-10T09:05:59.283Z,8.20
2017-12-10T09:06:59.274Z,9.50
2017-12-10T09:07:59.239Z,10.10
2017-12-10T09:08:59.216Z,7.40
2017-12-10T09:09:59.200Z,8.30
2017-12-10T09:10:59.163Z,7.30
2017-12-10T09:11:59.149Z,10.30
2017-12-10T09:12:59.129Z,8.90
2017-12-10T09:13:59.099Z,7.70
2017-12-10T09:14:59.085Z,8.30
2017-12-10T09:15:59.057Z,8.60
2017-12-10T09:16:59.030Z,8.50
2017-12-10T09:17:59.005Z,9.60
2017-12-10T09:18:58.982Z,7.90
2017-12-10T09:19:58.971Z,10.40
2017-12-10T09:20:58.943Z,9.90
2017-12-10T09:21:58.921Z,10.30
2017-12-10T09:22:58.889Z,8.60
2017-12-10T09:23:58.865Z,10.60
2017-12-10T09:24:58.851Z,9.90
2017-12-10T09:25:58.827Z,9.40
2017-12-10T09:26:58.808Z,11.90
2017-12-10T09:27:58.790Z,9.80
2017-12-10T09:28:58.750Z,9.70
2017-12-10T09:29:58.732Z,9.80
2017-12-10T09:30:58.708Z,10.00
2017-12-10T09:31:58.700Z,9.60
2017-12-10T09:32:58.658Z,10.00
2017-12-10T09:33:58.635Z,10.50
2017-12-10T09:34:58.610Z,8.90
2017-12-10T09:35:58.598Z,8.20
2017-12-10T09:36:58.570Z,7.90
2017-12-10T09:37:58.548Z,9.70
2017-12-10T09:38:58.522Z,8.20
2017-12-10T09:39:58.503Z,8.50
2017-12-10T09:40:58.476Z,9.50
2017-12-10T09:41:58.447Z,8.60
2017-12-10T09:42:58.428Z,11.20
2017-12-10T09:43:58.415Z,8.70
2017-12-10T09:44:58.398Z,10.30
2017-12-10T09:45:58.361Z,11.20
2017-12-10T09:46:58.342Z,10.20
2017-12-10T09:47:58.328Z,9.60
2017-12-10T09:48:58.288Z,8.80
2017-12-10T09:49:58.275Z,8.90
2017-12-10T09:50:58.252Z,9.40
2017-12-10T09:51:58.227Z,8.30
2017-12-10T09:52:58.201Z,9.90
2017-12-10T09:53:58.182Z,9.80
2017-12-10T09:54:58.150Z,8.30
2017-12-10T09:55:58.133Z,10.10
2017-12-10T09:56:58.112Z,9.50
2017-12-10T09:57:58.082Z,8.50
2017-12-10T09:58:58.057Z,9.00
2017-12-10T09:59:58.050Z,9.40
2017-12-10T10:00:58.018Z,9.90
2017-12-10T10:01:57.989Z,8.20
2017-12-10T10:02:57.968Z,8.60
2017-12-10T10:03:57.948Z,8.30
2017-12-10T10:04:57.923Z,8.70
2017-12-10T10:05:57.894Z,8.10
2017-12-10T10:06:57.869Z,8.20
2017-12-10T10:07:57.853Z,8.30
2017-12-10T10:08:57.825Z,8.50
2017-12-10T10:09:57.809Z,9.50
2017-12-10T10:10:57.793Z,8.30
2017-12-10T10:11:57.770Z,9.30
2017-12-10T10:12:57.739Z,8.80
2017-12-10T10:13:57.724Z,8.70
2017-12-10T10:14:57.693Z,9.10
2017-12-10T10:15:57.666Z,8.20
2017-12-10T10:16:57.650Z,8.20
2017-12-10T10:17:57.630Z,10.10
2017-12-10T10:18:57.593Z,8.20
2017-12-10T10:19:57.571Z,7.80
2017-12-10T10:20:57.548Z,7.30
2017-12-10T10:21:57.534Z,8.70
2017-12-10T10:22:57.511Z,7.70
2017-12-10T10:23:57.476Z,10.90
2017-12-10T10:24:57.455Z,9.20
2017-12-10T10:25:57.431Z,8.10
2017-12-10T10:26:57.411Z,11.40
2017-12-10T10:27:57.394Z,9.00
2017-12-10T10:28:57.361Z,8.00
2017-12-10T10:29:57.348Z,9.20
2017-12-10T10:30:57.319Z,8.40
2017-12-10T10:31:57.291Z,8.70
2017-12-10T10:32:57.286Z,8.10
2017-12-10T10:33:57.247Z,8.10
2017-12-10T10:34:57.226Z,7.70
2017-12-10T10:35:57.202Z,7.60
2017-12-10T10:36:57.183Z,8.40
2017-12-10T10:37:57.166Z,8.80
2017-12-10T10:38:57.131Z,7.80
2017-12-10T10:39:57.122Z,8.40
2017-12-10T10:40:57.091Z,7.90
2017-12-10T10:41:57.067Z,9.80
2017-12-10T10:42:57.044Z,8.30
2017-12-10T10:43:57.028Z,7.70
2017-12-10T10:44:56.990Z,8.20
2017-12-10T10:45:56.971Z,9.60
2017-12-10T10:46:56.946Z,9.10
2017-12-10T10:47:56.939Z,8.80
2017-12-10T10:48:56.898Z,8.50
2017-12-10T10:49:56.873Z,9.10
2017-12-10T10:50:56.855Z,8.50
2017-12-10T10:51:56.830Z,8.30
2017-12-10T10:52:56.805Z,9.70
2017-12-10T10:53:56.784Z,7.90
2017-12-10T10:54:56.759Z,7.60
2017-12-10T10:55:56.738Z,8.00
2017-12-10T10:56:56.745Z,9.90
2017-12-10T10:57:56.689Z,8.20
2017-12-10T10:58:56.674Z,7.20
2017-12-10T10:59:56.645Z,9.50
2017-12-10T11:00:56.628Z,7.80
2017-12-10T11:01:56.596Z,8.00
2017-12-10T11:02:56.574Z,8.20
2017-12-10T11:03:56.558Z,9.90
2017-12-10T11:04:56.530Z,7.70
2017-12-10T11:05:56.509Z,8.10
2017-12-10T11:06:56.491Z,7.30
2017-12-10T11:07:56.459Z,7.50
2017-12-10T11:08:56.436Z,8.60
2017-12-10T11:09:56.416Z,7.80
2017-12-10T11:10:56.389Z,7.60
2017-12-10T11:11:56.364Z,10.20
2017-12-10T11:12:56.339Z,7.70
2017-12-10T11:13:56.320Z,9.10
2017-12-10T11:14:56.297Z,5.90
2017-12-10T11:15:56.277Z,7.00
2017-12-10T11:16:56.248Z,8.60
2017-12-10T11:17:56.226Z,7.20
2017-12-10T11:18:56.209Z,7.10
2017-12-10T11:19:56.183Z,6.50
2017-12-10T11:20:56.157Z,9.00
2017-12-10T11:21:56.137Z,7.10
2017-12-10T11:22:56.109Z,6.00
2017-12-10T11:23:56.085Z,5.80
2017-12-10T11:24:56.060Z,7.90
2017-12-10T11:25:56.040Z,8.70
2017-12-10T11:26:56.018Z,6.20
2017-12-10T11:27:56.018Z,7.00
2017-12-10T11:28:55.977Z,7.60
2017-12-10T11:29:55.957Z,6.00
2017-12-10T11:30:55.927Z,6.60
2017-12-10T11:31:55.907Z,7.10
2017-12-10T11:32:55.876Z,6.70
2017-12-10T11:33:55.859Z,7.20
2017-12-10T11:34:55.841Z,6.60
2017-12-10T11:35:55.822Z,7.10
2017-12-10T11:36:55.783Z,7.90
2017-12-10T11:37:55.769Z,6.20
2017-12-10T11:38:55.748Z,6.70
2017-12-10T11:39:55.716Z,5.70
2017-12-10T11:40:55.711Z,6.90
2017-12-10T11:41:55.667Z,6.10
2017-12-10T11:42:55.646Z,6.50
2017-12-10T11:43:55.629Z,6.90
2017-12-10T11:44:55.658Z,5.40
2017-12-10T11:45:55.571Z,6.20
2017-12-10T11:46:55.550Z,7.30
2017-12-10T11:47:55.524Z,5.20
2017-12-10T11:48:55.508Z,6.30
2017-12-10T11:49:55.480Z,5.80
2017-12-10T11:50:55.459Z,6.20
2017-12-10T11:51:55.437Z,6.80
2017-12-10T11:52:55.422Z,8.90
2017-12-10T11:53:55.389Z,9.10
2017-12-10T11:54:55.367Z,9.50
2017-12-10T11:55:55.345Z,5.70
2017-12-10T11:56:55.319Z,7.60
2017-12-10T11:57:55.296Z,7.30
2017-12-10T11:58:55.272Z,8.30
2017-12-10T11:59:55.246Z,7.50
2017-12-10T12:00:55.226Z,7.80
2017-12-10T12:01:55.201Z,6.60
2017-12-10T12:02:55.192Z,6.70
2017-12-10T12:03:55.153Z,7.00
2017-12-10T12:04:55.136Z,8.30
2017-12-10T12:05:55.109Z,7.40
2017-12-10T12:06:55.084Z,7.10
2017-12-10T12:07:55.056Z,11.00
2017-12-10T12:08:55.039Z,8.80
2017-12-10T12:09:55.013Z,8.80
2017-12-10T12:10:54.985Z,10.10
2017-12-10T12:11:54.963Z,8.70
2017-12-10T12:12:54.938Z,8.80
2017-12-10T12:13:54.914Z,9.10
2017-12-10T12:14:54.893Z,7.70
2017-12-10T12:15:54.870Z,9.80
2017-12-10T12:16:54.850Z,8.00
2017-12-10T12:17:54.819Z,8.70
2017-12-10T12:18:54.802Z,8.30
2017-12-10T12:19:54.780Z,9.70
2017-12-10T12:20:54.758Z,9.10
2017-12-10T12:21:54.738Z,8.80
2017-12-10T12:22:54.710Z,9.50
2017-12-10T12:23:54.690Z,9.10
2017-12-10T12:24:54.662Z,9.70
2017-12-10T12:25:54.639Z,9.30
2017-12-10T12:26:54.612Z,10.50
2017-12-10T12:27:54.592Z,10.00
2017-12-10T12:28:54.570Z,9.30
2017-12-10T12:29:54.540Z,9.30
2017-12-10T12:30:54.519Z,10.30
2017-12-10T12:31:54.495Z,10.90
2017-12-10T12:32:54.468Z,9.50
2017-12-10T12:33:54.448Z,10.70
2017-12-10T12:34:54.419Z,10.20
2017-12-10T12:35:54.408Z,9.90
2017-12-10T12:36:54.381Z,10.70
2017-12-10T12:37:54.354Z,9.60
2017-12-10T12:38:54.326Z,10.30
2017-12-10T12:39:54.305Z,10.10
2017-12-10T12:40:54.281Z,10.10
2017-12-10T12:41:54.262Z,11.30
2017-12-10T12:42:54.243Z,10.50
2017-12-10T12:43:54.216Z,10.60
2017-12-10T12:44:54.191Z,10.00
2017-12-10T12:45:54.177Z,10.60
2017-12-10T12:46:54.139Z,11.10
2017-12-10T12:47:54.118Z,10.50
2017-12-10T12:48:54.100Z,10.70
2017-12-10T12:49:54.075Z,10.80
2017-12-10T12:50:54.055Z,10.60
2017-12-10T12:51:54.032Z,10.20
2017-12-10T12:52:54.001Z,10.80
2017-12-10T12:53:53.977Z,12.30
2017-12-10T12:54:53.952Z,11.90
2017-12-10T12:55:53.932Z,11.10
2017-12-10T12:56:53.922Z,10.70
2017-12-10T12:57:53.891Z,11.90
2017-12-10T12:58:53.861Z,11.50